createdAt,value
2023-03-18T00:00:28.881Z,3.00
2023-03-18T00:05:34.647Z,2.88
2023-03-18T00:10:38.135Z,3.03
2023-03-18T00:15:41.592Z,3.28
2023-03-18T00:20:46.482Z,3.15
2023-03-18T00:25:50.324Z,3.10
2023-03-18T00:30:54.129Z,2.60
2023-03-18T00:35:59.986Z,2.73
2023-03-18T00:41:11.197Z,2.90
2023-03-18T00:46:16.853Z,3.30
2023-03-18T00:51:23.422Z,2.95
2023-03-18T00:56:28.826Z,2.45
2023-03-18T01:01:32.327Z,2.33
2023-03-18T01:06:38.843Z,2.28
2023-03-18T01:11:42.286Z,2.70
2023-03-18T01:16:47.036Z,2.60
2023-03-18T01:26:55.513Z,2.40
2023-03-18T01:31:58.940Z,2.50
2023-03-18T01:37:04.078Z,2.42
2023-03-18T01:42:07.700Z,2.65
2023-03-18T01:47:11.899Z,2.45
2023-03-18T01:52:20.652Z,2.03
2023-03-18T01:57:25.003Z,2.58
2023-03-18T02:02:29.265Z,2.40
2023-03-18T02:07:36.430Z,2.67
2023-03-18T02:12:41.512Z,2.63
2023-03-18T02:17:49.301Z,2.72
2023-03-18T02:22:59.171Z,2.58
2023-03-18T02:28:08.014Z,2.60
2023-03-18T02:33:12.673Z,2.75
2023-03-18T02:38:16.540Z,3.05
2023-03-18T02:43:24.736Z,2.70
2023-03-18T02:48:33.560Z,3.28
2023-03-18T02:53:37.556Z,2.58
2023-03-18T02:58:43.713Z,2.57
2023-03-18T03:03:47.087Z,2.70
2023-03-18T03:08:50.570Z,2.53
2023-03-18T03:13:55.875Z,2.55
2023-03-18T03:18:59.656Z,2.42
2023-03-18T03:24:04.248Z,2.70
2023-03-18T03:29:09.156Z,2.72
2023-03-18T03:34:12.787Z,2.70
2023-03-18T03:39:16.314Z,2.92
2023-03-18T03:44:21.346Z,2.60
2023-03-18T03:49:24.859Z,2.65
2023-03-18T03:54:28.218Z,2.60
2023-03-18T03:59:33.063Z,3.10
2023-03-18T04:04:37.819Z,3.83
2023-03-18T04:14:48.012Z,2.75
2023-03-18T04:19:51.458Z,3.05
2023-03-18T04:24:54.929Z,2.47
2023-03-18T04:29:59.817Z,4.00
2023-03-18T04:40:08.178Z,5.80
2023-03-18T04:45:14.366Z,3.80
2023-03-18T04:50:18.041Z,3.42
2023-03-18T04:55:22.110Z,3.22
2023-03-18T05:00:27.979Z,3.80
2023-03-18T05:05:32.885Z,3.65
2023-03-18T05:10:36.459Z,3.50
2023-03-18T05:15:41.446Z,3.60
2023-03-18T05:20:44.946Z,4.00
2023-03-18T05:25:50.897Z,3.78
2023-03-18T05:30:55.883Z,4.53
2023-03-18T05:41:02.616Z,4.53
2023-03-18T05:46:07.519Z,4.55
2023-03-18T05:51:11.342Z,4.70
2023-03-18T05:56:15.626Z,4.70
2023-03-18T06:01:22.062Z,4.35
2023-03-18T06:06:25.474Z,4.20
2023-03-18T06:11:29.575Z,4.43
2023-03-18T06:16:35.468Z,4.20
2023-03-18T06:21:39.023Z,4.60
2023-03-18T06:26:42.761Z,4.55
2023-03-18T06:31:47.644Z,4.27
2023-03-18T06:36:51.137Z,4.45
2023-03-18T06:41:55.258Z,4.72
2023-03-18T06:46:59.982Z,4.65
2023-03-18T06:52:03.884Z,4.63
2023-03-18T06:57:07.838Z,4.60
2023-03-18T07:02:13.188Z,4.47
2023-03-18T07:07:16.870Z,4.45
2023-03-18T07:12:20.320Z,4.70
2023-03-18T07:17:25.349Z,4.32
2023-03-18T07:22:29.329Z,4.30
2023-03-18T07:27:34.942Z,4.35
2023-03-18T07:32:39.848Z,4.30
2023-03-18T07:37:43.707Z,3.85
2023-03-18T07:42:47.161Z,4.30
2023-03-18T07:47:52.088Z,4.03
2023-03-18T07:52:55.486Z,3.53
2023-03-18T07:57:58.850Z,3.63
2023-03-18T08:03:04.065Z,2.90
2023-03-18T08:08:07.865Z,3.40
2023-03-18T08:13:11.409Z,2.40
2023-03-18T08:18:16.390Z,2.60
2023-03-18T08:23:20.158Z,2.90
2023-03-18T08:28:23.842Z,2.65
2023-03-18T08:33:29.415Z,2.53
2023-03-18T08:38:32.968Z,2.67
2023-03-18T08:48:44.035Z,2.80
2023-03-18T08:53:47.489Z,2.97
2023-03-18T08:58:51.297Z,3.00
2023-03-18T09:03:58.114Z,2.60
2023-03-18T09:09:01.543Z,2.80
2023-03-18T09:14:04.898Z,2.95
2023-03-18T09:19:09.834Z,2.70
2023-03-18T09:24:13.363Z,3.25
2023-03-18T09:29:16.927Z,2.50
2023-03-18T09:34:21.913Z,2.38
2023-03-18T09:44:33.818Z,2.30
2023-03-18T09:49:48.466Z,2.35
2023-03-18T09:54:58.922Z,2.28
2023-03-18T10:00:09.329Z,1.73
2023-03-18T10:05:19.362Z,1.70
2023-03-18T10:10:27.357Z,1.75
2023-03-18T10:15:37.435Z,1.60
2023-03-18T10:20:54.052Z,1.83
2023-03-18T10:26:02.996Z,1.85
2023-03-18T10:31:18.601Z,1.40
2023-03-18T10:36:29.685Z,1.60
2023-03-18T10:41:36.248Z,1.80
2023-03-18T10:46:39.901Z,1.50
2023-03-18T10:51:51.289Z,2.08
2023-03-18T10:56:54.750Z,1.83
2023-03-18T11:02:04.688Z,1.98
2023-03-18T11:07:17.372Z,1.98
2023-03-18T11:12:26.055Z,1.80
2023-03-18T11:17:33.437Z,1.70
2023-03-18T11:22:39.170Z,2.05
2023-03-18T11:27:44.355Z,1.80
2023-03-18T11:32:56.866Z,2.00
2023-03-18T11:38:04.493Z,1.80
2023-03-18T11:43:21.664Z,2.05
2023-03-18T11:48:31.597Z,2.00
2023-03-18T11:53:48.948Z,2.00
2023-03-18T11:59:09.680Z,2.05
2023-03-18T12:04:45.311Z,2.17
2023-03-18T12:09:57.127Z,2.45
2023-03-18T12:15:10.290Z,2.10
2023-03-18T12:20:33.879Z,2.53
2023-03-18T12:26:08.662Z,2.60
2023-03-18T12:31:42.933Z,1.60
2023-03-18T12:37:02.582Z,1.90
2023-03-18T12:42:13.566Z,1.90
2023-03-18T12:47:22.694Z,1.70
2023-03-18T12:52:32.909Z,2.05
2023-03-18T12:57:45.419Z,2.10
2023-03-18T13:02:57.374Z,1.70
2023-03-18T13:08:28.974Z,1.85
2023-03-18T13:13:37.353Z,2.05
2023-03-18T13:18:44.516Z,1.88
2023-03-18T13:24:17.985Z,1.80
2023-03-18T13:29:35.243Z,1.60
2023-03-18T13:35:07.023Z,1.70
2023-03-18T13:40:29.504Z,1.70
2023-03-18T13:45:39.309Z,3.55
2023-03-18T13:50:44.506Z,3.50
2023-03-18T13:55:50.657Z,3.92
2023-03-18T14:01:15.550Z,2.72
2023-03-18T14:06:26.664Z,2.30
2023-03-18T14:11:50.414Z,2.72
2023-03-18T14:16:58.099Z,2.90
2023-03-18T14:22:09.697Z,3.03
2023-03-18T14:27:20.565Z,2.67
2023-03-18T14:32:41.133Z,3.20
2023-03-18T14:38:03.763Z,3.00
2023-03-18T14:43:11.736Z,3.00
2023-03-18T14:48:21.644Z,3.15
2023-03-18T14:53:30.640Z,2.83
2023-03-18T14:58:36.013Z,2.90
2023-03-18T15:03:44.901Z,3.17
2023-03-18T15:08:54.184Z,4.05
2023-03-18T15:14:00.245Z,4.45
2023-03-18T15:19:05.422Z,3.30
2023-03-18T15:29:26.926Z,3.17
2023-03-18T15:34:34.485Z,3.05
2023-03-18T15:39:40.037Z,2.20
2023-03-18T15:44:45.897Z,3.08
2023-03-18T15:49:55.884Z,3.78
2023-03-18T15:54:59.430Z,4.15
2023-03-18T16:00:04.617Z,5.40
2023-03-18T16:05:17.364Z,5.30
2023-03-18T16:10:23.171Z,4.10
2023-03-18T16:15:28.144Z,3.40
2023-03-18T16:25:37.030Z,3.00
2023-03-18T16:30:41.652Z,2.90
2023-03-18T16:35:47.643Z,2.80
2023-03-18T16:40:53.870Z,2.75
2023-03-18T16:46:00.761Z,3.47
2023-03-18T16:51:06.108Z,3.45
2023-03-18T16:56:16.978Z,3.53
2023-03-18T17:01:21.209Z,3.45
2023-03-18T17:06:26.636Z,4.38
2023-03-18T17:11:29.982Z,4.13
2023-03-18T17:16:34.212Z,6.03
2023-03-18T17:21:39.618Z,6.13
2023-03-18T17:26:43.382Z,5.40
2023-03-18T17:31:46.738Z,6.10
2023-03-18T17:36:51.568Z,5.40
2023-03-18T17:41:55.262Z,4.57
2023-03-18T17:46:58.734Z,4.18
2023-03-18T17:52:03.622Z,4.35
2023-03-18T17:57:07.375Z,3.72
2023-03-18T18:02:14.861Z,3.30
2023-03-18T18:07:21.911Z,3.78
2023-03-18T18:12:26.200Z,3.92
2023-03-18T18:17:29.756Z,4.00
2023-03-18T18:22:34.691Z,4.63
2023-03-18T18:32:41.533Z,5.47
2023-03-18T18:37:47.659Z,5.40
2023-03-18T18:42:51.077Z,5.78
2023-03-18T18:47:54.815Z,6.13
2023-03-18T18:53:00.741Z,6.00
2023-03-18T18:58:04.482Z,6.18
2023-03-18T19:03:14.375Z,5.55
2023-03-18T19:08:25.421Z,5.53
2023-03-18T19:13:31.030Z,5.00
2023-03-18T19:18:39.017Z,6.00
2023-03-18T19:23:44.014Z,6.10
2023-03-18T19:34:15.369Z,6.38
2023-03-18T19:39:22.126Z,6.72
2023-03-18T19:44:26.862Z,6.78
2023-03-18T19:49:33.806Z,6.00
2023-03-18T19:54:38.891Z,5.22
2023-03-18T20:04:45.720Z,5.43
2023-03-18T20:09:50.895Z,5.22
2023-03-18T20:14:54.462Z,5.45
2023-03-18T20:19:58.801Z,4.97
2023-03-18T20:25:05.130Z,5.05
2023-03-18T20:30:23.286Z,5.93
2023-03-18T20:35:29.016Z,8.07
2023-03-18T20:40:34.316Z,9.13
2023-03-18T20:45:37.697Z,5.75
2023-03-18T20:50:41.370Z,5.60
2023-03-18T20:55:47.039Z,6.28
2023-03-18T21:00:50.891Z,6.30
2023-03-18T21:05:56.871Z,5.47
2023-03-18T21:11:02.490Z,5.30
2023-03-18T21:16:08.188Z,5.03
2023-03-18T21:21:20.642Z,4.80
2023-03-18T21:26:25.511Z,5.32
2023-03-18T21:36:34.821Z,5.10
2023-03-18T21:41:39.759Z,5.97
2023-03-18T21:51:46.756Z,5.05
2023-03-18T21:56:51.548Z,4.57
2023-03-18T22:01:54.992Z,4.60
2023-03-18T22:06:58.529Z,4.53
2023-03-18T22:12:03.366Z,4.72
2023-03-18T22:17:12.088Z,4.45
2023-03-18T22:22:17.331Z,4.38
2023-03-18T22:27:24.290Z,4.68
2023-03-18T22:32:38.698Z,4.10
2023-03-18T22:37:42.603Z,4.55
2023-03-18T22:42:48.640Z,4.60
2023-03-18T22:47:52.731Z,4.60
2023-03-18T22:53:01.263Z,4.47
2023-03-18T22:58:06.750Z,4.53
2023-03-18T23:03:13.019Z,5.35
2023-03-18T23:08:17.425Z,5.07
2023-03-18T23:13:28.153Z,4.57
2023-03-18T23:18:31.645Z,5.53
2023-03-18T23:23:35.060Z,4.78
2023-03-18T23:28:44.855Z,5.05
2023-03-18T23:33:48.826Z,4.97
2023-03-18T23:38:52.561Z,5.35
2023-03-18T23:43:57.392Z,5.13
2023-03-18T23:49:00.725Z,4.70
2023-03-18T23:54:04.109Z,4.90
2023-03-18T23:59:08.984Z,5.15
